createdAt,value
2022-11-23T00:01:15.152Z,99128.16
2022-11-23T00:04:06.107Z,99131.59
2022-11-23T00:06:54.757Z,99128.91
2022-11-23T00:09:43.456Z,99129.81
2022-11-23T00:12:32.059Z,99122.13
2022-11-23T00:15:20.817Z,99124.19
2022-11-23T00:18:10.733Z,99132.44
2022-11-23T00:20:59.323Z,99131.22
2022-11-23T00:23:47.961Z,99133.09
2022-11-23T00:26:36.587Z,99129.81
2022-11-23T00:29:25.241Z,99131.44
2022-11-23T00:32:13.838Z,99137.91
2022-11-23T00:35:03.786Z,99139.72
2022-11-23T00:37:52.382Z,99131.38
2022-11-23T00:40:41.125Z,99131.81
2022-11-23T00:43:30.299Z,99125.91
2022-11-23T00:46:20.415Z,99139.03
2022-11-23T00:49:09.950Z,99138.28
2022-11-23T00:51:59.978Z,99132.34
2022-11-23T00:54:48.596Z,99141.59
2022-11-23T00:57:37.309Z,99139.13
2022-11-23T01:00:25.888Z,99136.06
2022-11-23T01:03:14.602Z,99149.00
2022-11-23T01:06:07.724Z,99139.59
2022-11-23T01:08:59.672Z,99139.59
2022-11-23T01:11:48.272Z,99139.38
2022-11-23T01:14:36.861Z,99140.88
2022-11-23T01:17:25.557Z,99137.97
2022-11-23T01:20:14.149Z,99139.59
2022-11-23T01:23:02.967Z,99143.28
2022-11-23T01:25:56.787Z,99144.34
2022-11-23T01:28:46.320Z,99141.28
2022-11-23T01:31:34.983Z,99144.78
2022-11-23T01:34:23.657Z,99138.88
2022-11-23T01:37:12.261Z,99137.25
2022-11-23T01:40:00.790Z,99135.59
2022-11-23T01:42:55.152Z,99145.81
2022-11-23T01:45:45.335Z,99133.97
2022-11-23T01:48:35.992Z,99136.19
2022-11-23T01:51:27.320Z,99134.78
2022-11-23T01:54:17.294Z,99126.22
2022-11-23T01:57:09.174Z,99130.69
2022-11-23T01:59:59.205Z,99131.53
2022-11-23T02:02:52.903Z,99132.78
2022-11-23T02:05:45.845Z,99127.44
2022-11-23T02:08:34.535Z,99131.16
2022-11-23T02:11:23.174Z,99136.28
2022-11-23T02:14:12.134Z,99131.97
2022-11-23T02:17:02.472Z,99140.78
2022-11-23T02:19:57.170Z,99143.66
2022-11-23T02:22:52.731Z,99142.41
2022-11-23T02:25:52.952Z,99145.97
2022-11-23T02:28:44.503Z,99150.25
2022-11-23T02:31:33.242Z,99152.09
2022-11-23T02:34:22.149Z,99154.53
2022-11-23T02:37:11.926Z,99150.84
2022-11-23T02:40:01.564Z,99149.66
2022-11-23T02:42:51.821Z,99157.78
2022-11-23T02:45:44.012Z,99154.53
2022-11-23T02:48:32.649Z,99162.34
2022-11-23T02:51:21.283Z,99164.44
2022-11-23T02:54:09.951Z,99171.38
2022-11-23T02:56:58.488Z,99167.69
2022-11-23T02:59:48.867Z,99168.13
2022-11-23T03:02:37.458Z,99168.50
2022-11-23T03:05:26.076Z,99175.91
2022-11-23T03:08:14.625Z,99175.09
2022-11-23T03:11:03.245Z,99183.66
2022-11-23T03:13:51.900Z,99174.06
2022-11-23T03:16:41.894Z,99175.09
2022-11-23T03:19:30.900Z,99184.72
2022-11-23T03:22:19.794Z,99187.38
2022-11-23T03:25:09.136Z,99178.34
2022-11-23T03:27:58.118Z,99182.03
2022-11-23T03:30:46.788Z,99182.03
2022-11-23T03:33:36.734Z,99187.81
2022-11-23T03:36:25.416Z,99185.16
2022-11-23T03:39:14.002Z,99179.81
2022-11-23T03:42:02.673Z,99177.16
2022-11-23T03:44:51.221Z,99183.06
2022-11-23T03:47:39.929Z,99180.88
2022-11-23T03:50:30.066Z,99175.97
2022-11-23T03:53:18.689Z,99177.59
2022-11-23T03:56:07.597Z,99182.94
2022-11-23T03:58:56.219Z,99181.31
2022-11-23T04:01:44.904Z,99174.72
2022-11-23T04:04:33.566Z,99178.41
2022-11-23T04:07:23.728Z,99175.16
2022-11-23T04:10:12.317Z,99175.97
2022-11-23T04:13:00.925Z,99173.31
2022-11-23T04:15:49.627Z,99173.31
2022-11-23T04:18:38.308Z,99175.97
2022-11-23T04:21:26.886Z,99181.31
2022-11-23T04:24:16.880Z,99181.72
2022-11-23T04:27:05.669Z,99178.06
2022-11-23T04:29:54.286Z,99188.72
2022-11-23T04:32:42.907Z,99191.50
2022-11-23T04:35:31.487Z,99181.72
2022-11-23T04:38:20.122Z,99180.09
2022-11-23T04:41:10.122Z,99172.09
2022-11-23T04:43:58.731Z,99181.72
2022-11-23T04:46:47.398Z,99188.72
2022-11-23T04:49:36.037Z,99185.41
2022-11-23T04:52:24.670Z,99185.66
2022-11-23T04:55:13.339Z,99185.41
2022-11-23T04:58:03.346Z,99191.56
2022-11-23T05:00:52.208Z,99178.47
2022-11-23T05:03:40.822Z,99180.47
2022-11-23T05:06:29.547Z,99176.56
2022-11-23T05:09:18.203Z,99179.69
2022-11-23T05:12:07.344Z,99185.00
2022-11-23T05:14:57.356Z,99186.03
2022-11-23T05:17:45.923Z,99184.56
2022-11-23T05:20:34.818Z,99181.91
2022-11-23T05:23:23.482Z,99180.88
2022-11-23T05:26:12.095Z,99175.09
2022-11-23T05:29:00.733Z,99191.84
2022-11-23T05:31:50.708Z,99188.59
2022-11-23T05:34:39.314Z,99190.03
2022-11-23T05:37:27.896Z,99187.81
2022-11-23T05:40:16.503Z,99195.59
2022-11-23T05:43:05.951Z,99194.88
2022-11-23T05:45:54.630Z,99193.47
2022-11-23T05:48:45.278Z,99195.53
2022-11-23T05:51:33.991Z,99185.28
2022-11-23T05:54:22.996Z,99192.69
2022-11-23T05:57:11.955Z,99198.03
2022-11-23T06:00:00.635Z,99196.84
2022-11-23T06:02:49.310Z,99191.50
2022-11-23T06:05:39.522Z,99197.88
2022-11-23T06:08:28.076Z,99199.94
2022-11-23T06:11:16.957Z,99197.69
2022-11-23T06:14:07.769Z,99195.66
2022-11-23T06:17:00.158Z,99203.03
2022-11-23T06:19:48.713Z,99210.00
2022-11-23T06:22:38.666Z,99207.16
2022-11-23T06:25:27.294Z,99212.50
2022-11-23T06:28:15.836Z,99226.00
2022-11-23T06:31:05.796Z,99225.19
2022-11-23T06:33:54.448Z,99223.56
2022-11-23T06:36:43.812Z,99233.19
2022-11-23T06:39:34.146Z,99231.75
2022-11-23T06:42:38.242Z,99232.13
2022-11-23T06:45:27.281Z,99227.69
2022-11-23T06:48:15.821Z,99228.47
2022-11-23T06:51:04.583Z,99228.88
2022-11-23T06:53:53.159Z,99226.81
2022-11-23T06:56:43.154Z,99229.69
2022-11-23T06:59:31.885Z,99226.00
2022-11-23T07:02:20.704Z,99228.28
2022-11-23T07:05:10.066Z,99236.28
2022-11-23T07:07:58.706Z,99239.97
2022-11-23T07:10:47.862Z,99249.00
2022-11-23T07:13:37.789Z,99247.34
2022-11-23T07:16:26.545Z,99242.00
2022-11-23T07:19:15.107Z,99245.50
2022-11-23T07:22:03.768Z,99238.94
2022-11-23T07:24:52.357Z,99245.31
2022-11-23T07:27:40.978Z,99242.84
2022-11-23T07:30:32.194Z,99245.31
2022-11-23T07:33:20.819Z,99249.00
2022-11-23T07:36:09.823Z,99244.69
2022-11-23T07:38:58.466Z,99250.63
2022-11-23T07:41:46.991Z,99250.00
2022-11-23T07:44:35.627Z,99256.38
2022-11-23T07:47:25.569Z,99256.16
2022-11-23T07:50:14.867Z,99255.94
2022-11-23T07:53:04.129Z,99262.31
2022-11-23T07:55:58.691Z,99254.31
2022-11-23T07:58:47.437Z,99263.31
2022-11-23T08:01:35.991Z,99256.38
2022-11-23T08:04:26.794Z,99253.94
2022-11-23T08:07:15.488Z,99256.38
2022-11-23T08:10:05.286Z,99259.25
2022-11-23T08:12:53.890Z,99252.50
2022-11-23T08:15:42.723Z,99253.53
2022-11-23T08:18:31.369Z,99258.44
2022-11-23T08:21:23.080Z,99258.22
2022-11-23T08:24:12.075Z,99253.88
2022-11-23T08:27:00.656Z,99252.25
2022-11-23T08:29:49.273Z,99246.94
2022-11-23T08:32:37.872Z,99246.94
2022-11-23T08:35:26.587Z,99250.63
2022-11-23T08:38:16.562Z,99248.31
2022-11-23T08:41:06.589Z,99238.50
2022-11-23T08:43:55.379Z,99246.50
2022-11-23T08:46:44.079Z,99247.94
2022-11-23T08:49:32.728Z,99250.97
2022-11-23T08:52:21.445Z,99255.09
2022-11-23T08:55:11.760Z,99258.19
2022-11-23T08:58:00.717Z,99261.88
2022-11-23T09:00:49.349Z,99260.84
2022-11-23T09:03:38.028Z,99258.38
2022-11-23T09:06:29.162Z,99255.13
2022-11-23T09:09:17.798Z,99261.28
2022-11-23T09:12:08.839Z,99262.91
2022-11-23T09:14:57.459Z,99261.88
2022-11-23T09:17:46.109Z,99261.88
2022-11-23T09:20:34.847Z,99265.56
2022-11-23T09:23:23.666Z,99265.13
2022-11-23T09:26:12.325Z,99270.06
2022-11-23T09:29:02.749Z,99266.59
2022-11-23T09:31:51.369Z,99262.91
2022-11-23T09:34:39.977Z,99257.59
2022-11-23T09:37:28.779Z,99252.03
2022-11-23T09:40:18.300Z,99245.91
2022-11-23T09:43:17.738Z,99252.47
2022-11-23T09:46:15.155Z,99242.63
2022-11-23T09:49:11.506Z,99246.94
2022-11-23T09:52:00.201Z,99250.63
2022-11-23T09:54:50.317Z,99241.59
2022-11-23T09:57:39.056Z,99242.41
2022-11-23T10:00:28.998Z,99243.22
2022-11-23T10:03:19.752Z,99249.34
2022-11-23T10:06:18.224Z,99243.41
2022-11-23T10:09:24.363Z,99244.44
2022-11-23T10:12:21.982Z,99242.78
2022-11-23T10:15:15.928Z,99235.44
2022-11-23T10:18:14.025Z,99238.47
2022-11-23T10:21:10.226Z,99234.97
2022-11-23T10:24:05.023Z,99231.13
2022-11-23T10:26:53.590Z,99224.34
2022-11-23T10:29:43.728Z,99221.50
2022-11-23T10:32:35.591Z,99217.81
2022-11-23T10:35:30.267Z,99219.44
2022-11-23T10:38:21.374Z,99219.44
2022-11-23T10:41:12.029Z,99213.69
2022-11-23T10:44:07.200Z,99213.28
2022-11-23T10:46:55.942Z,99209.34
2022-11-23T10:49:58.303Z,99210.16
2022-11-23T10:52:52.963Z,99207.50
2022-11-23T10:55:50.486Z,99203.00
2022-11-23T10:58:44.417Z,99206.00
2022-11-23T11:01:33.067Z,99206.66
2022-11-23T11:04:25.597Z,99204.84
2022-11-23T11:07:29.101Z,99206.66
2022-11-23T11:10:33.786Z,99199.50
2022-11-23T11:13:33.963Z,99201.72
2022-11-23T11:16:24.847Z,99200.69
2022-11-23T11:19:26.974Z,99197.00
2022-11-23T11:22:29.559Z,99197.22
2022-11-23T11:25:30.213Z,99202.94
2022-11-23T11:28:25.275Z,99199.66
2022-11-23T11:31:50.354Z,99194.78
2022-11-23T11:34:44.051Z,99196.78
2022-11-23T11:37:34.671Z,99199.25
2022-11-23T11:40:29.018Z,99194.50
2022-11-23T11:43:23.039Z,99193.91
2022-11-23T11:46:32.845Z,99189.38
2022-11-23T11:49:24.897Z,99188.59
2022-11-23T11:52:19.306Z,99193.66
2022-11-23T11:55:15.251Z,99193.00
2022-11-23T11:58:06.282Z,99189.75
2022-11-23T12:01:00.971Z,99185.47
2022-11-23T12:03:53.644Z,99179.09
2022-11-23T12:06:46.910Z,99183.59
2022-11-23T12:09:44.986Z,99186.06
2022-11-23T12:12:35.194Z,99178.06
2022-11-23T12:15:48.416Z,99175.41
2022-11-23T12:18:53.315Z,99175.41
2022-11-23T12:22:13.293Z,99181.56
2022-11-23T12:25:14.279Z,99179.09
2022-11-23T12:28:13.718Z,99175.63
2022-11-23T12:31:08.172Z,99173.78
2022-11-23T12:34:08.690Z,99179.09
2022-11-23T12:37:19.469Z,99171.94
2022-11-23T12:40:24.803Z,99173.19
2022-11-23T12:43:15.471Z,99175.41
2022-11-23T12:46:17.281Z,99174.38
2022-11-23T12:49:14.270Z,99166.38
2022-11-23T12:52:08.856Z,99168.44
2022-11-23T12:55:04.911Z,99168.00
2022-11-23T12:58:00.736Z,99174.53
2022-11-23T13:00:53.296Z,99178.97
2022-11-23T13:04:13.043Z,99172.22
2022-11-23T13:07:35.437Z,99176.81
2022-11-23T13:10:38.242Z,99187.09
2022-11-23T13:13:37.002Z,99184.44
2022-11-23T13:16:37.664Z,99192.81
2022-11-23T13:19:43.596Z,99199.53
2022-11-23T13:22:33.466Z,99196.28
2022-11-23T13:25:26.788Z,99191.38
2022-11-23T13:28:33.187Z,99190.94
2022-11-23T13:31:27.462Z,99195.47
2022-11-23T13:34:47.185Z,99196.88
2022-11-23T13:38:18.221Z,99201.59
2022-11-23T13:41:57.409Z,99196.28
2022-11-23T13:44:48.225Z,99193.78
2022-11-23T13:47:42.227Z,99196.44
2022-11-23T13:50:32.429Z,99197.47
2022-11-23T13:53:23.837Z,99197.47
2022-11-23T13:56:29.406Z,99193.78
2022-11-23T13:59:31.665Z,99190.88
2022-11-23T14:02:30.407Z,99192.75
2022-11-23T14:05:33.484Z,99197.84
2022-11-23T14:08:22.330Z,99196.44
2022-11-23T14:11:14.861Z,99195.41
2022-11-23T14:14:05.370Z,99198.88
2022-11-23T14:17:41.980Z,99190.53
2022-11-23T14:21:10.142Z,99193.78
2022-11-23T14:24:31.521Z,99195.84
2022-11-23T14:27:46.719Z,99197.91
2022-11-23T14:30:47.720Z,99203.53
2022-11-23T14:33:41.178Z,99207.69
2022-11-23T14:36:38.187Z,99211.06
2022-11-23T14:39:54.308Z,99209.72
2022-11-23T14:42:45.097Z,99214.44
2022-11-23T14:45:35.278Z,99209.00
2022-11-23T14:48:24.995Z,99214.34
2022-11-23T14:51:16.444Z,99211.97
2022-11-23T14:54:11.619Z,99206.50
2022-11-23T14:57:02.899Z,99206.94
2022-11-23T14:59:54.470Z,99208.72
2022-11-23T15:02:44.672Z,99199.09
2022-11-23T15:05:34.475Z,99203.47
2022-11-23T15:08:25.905Z,99209.25
2022-11-23T15:11:21.121Z,99206.84
2022-11-23T15:14:19.877Z,99209.56
2022-11-23T15:17:15.954Z,99210.00
2022-11-23T15:20:05.418Z,99212.19
2022-11-23T15:22:54.416Z,99215.88
2022-11-23T15:25:52.673Z,99217.34
2022-11-23T15:28:42.679Z,99212.69
2022-11-23T15:31:35.325Z,99217.59
2022-11-23T15:34:24.417Z,99211.03
2022-11-23T15:37:13.088Z,99221.25
2022-11-23T15:40:02.033Z,99226.13
2022-11-23T15:42:52.050Z,99239.03
2022-11-23T15:46:04.154Z,99242.47
2022-11-23T15:48:54.413Z,99240.38
2022-11-23T15:51:46.914Z,99241.25
2022-11-23T15:54:37.559Z,99248.66
2022-11-23T15:57:28.320Z,99237.13
2022-11-23T16:00:24.905Z,99244.53
2022-11-23T16:03:31.102Z,99247.34
2022-11-23T16:06:25.788Z,99252.66
2022-11-23T16:09:53.354Z,99247.72
2022-11-23T16:12:49.749Z,99251.47
2022-11-23T16:15:44.081Z,99254.13
2022-11-23T16:18:34.286Z,99250.63
2022-11-23T16:21:25.159Z,99256.38
2022-11-23T16:24:17.948Z,99260.28
2022-11-23T16:27:14.332Z,99254.31
2022-11-23T16:30:04.031Z,99254.72
2022-11-23T16:32:52.585Z,99260.06
2022-11-23T16:35:42.616Z,99257.41
2022-11-23T16:38:31.846Z,99254.72
2022-11-23T16:41:20.451Z,99260.94
2022-11-23T16:44:09.241Z,99257.25
2022-11-23T16:47:21.450Z,99255.16
2022-11-23T16:50:13.378Z,99256.81
2022-11-23T16:53:11.896Z,99252.31
2022-11-23T16:56:02.670Z,99255.16
2022-11-23T16:58:51.608Z,99251.03
2022-11-23T17:01:40.715Z,99252.84
2022-11-23T17:04:29.395Z,99255.94
2022-11-23T17:07:18.128Z,99254.72
2022-11-23T17:10:09.050Z,99259.69
2022-11-23T17:12:57.852Z,99258.03
2022-11-23T17:15:46.651Z,99258.44
2022-11-23T17:18:35.531Z,99246.94
2022-11-23T17:21:24.504Z,99250.25
2022-11-23T17:24:13.990Z,99243.50
2022-11-23T17:27:04.164Z,99246.53
2022-11-23T17:29:57.354Z,99246.53
2022-11-23T17:32:45.997Z,99244.44
2022-11-23T17:35:38.170Z,99250.63
2022-11-23T17:38:28.131Z,99251.66
2022-11-23T17:41:17.093Z,99260.00
2022-11-23T17:44:07.494Z,99268.22
2022-11-23T17:46:58.078Z,99267.13
2022-11-23T17:49:46.974Z,99265.13
2022-11-23T17:52:35.747Z,99264.91
2022-11-23T17:55:24.539Z,99270.94
2022-11-23T17:58:14.076Z,99269.69
2022-11-23T18:01:04.389Z,99271.31
2022-11-23T18:03:53.302Z,99271.19
2022-11-23T18:06:42.155Z,99268.38
2022-11-23T18:09:31.335Z,99272.94
2022-11-23T18:12:21.594Z,99271.47
2022-11-23T18:15:11.228Z,99272.81
2022-11-23T18:18:04.639Z,99270.22
2022-11-23T18:20:56.022Z,99269.25
2022-11-23T18:23:45.312Z,99281.13
2022-11-23T18:26:34.880Z,99277.47
2022-11-23T18:29:23.761Z,99274.41
2022-11-23T18:32:12.667Z,99285.03
2022-11-23T18:35:03.075Z,99284.03
2022-11-23T18:37:52.043Z,99293.00
2022-11-23T18:40:41.199Z,99283.44
2022-11-23T18:43:30.303Z,99284.44
2022-11-23T18:46:20.042Z,99290.88
2022-11-23T18:49:09.388Z,99288.94
2022-11-23T18:51:59.781Z,99288.19
2022-11-23T18:54:48.765Z,99282.84
2022-11-23T18:57:37.803Z,99281.59
2022-11-23T19:00:27.943Z,99279.22
2022-11-23T19:03:17.833Z,99283.59
2022-11-23T19:06:08.226Z,99282.41
2022-11-23T19:08:58.958Z,99291.03
2022-11-23T19:11:48.504Z,99287.91
2022-11-23T19:14:37.442Z,99284.47
2022-11-23T19:17:26.657Z,99283.75
2022-11-23T19:20:15.451Z,99290.13
2022-11-23T19:23:05.364Z,99288.44
2022-11-23T19:26:02.866Z,99288.28
2022-11-23T19:28:52.230Z,99292.06
2022-11-23T19:31:41.107Z,99299.47
2022-11-23T19:34:30.034Z,99309.97
2022-11-23T19:37:19.164Z,99307.31
2022-11-23T19:40:09.532Z,99308.16
2022-11-23T19:43:00.122Z,99317.78
2022-11-23T19:45:55.768Z,99320.41
2022-11-23T19:48:44.812Z,99324.50
2022-11-23T19:51:38.235Z,99323.19
2022-11-23T19:54:27.510Z,99324.75
2022-11-23T19:57:16.635Z,99322.53
2022-11-23T20:03:37.875Z,99319.50
2022-11-23T20:06:28.416Z,99316.38
2022-11-23T20:09:19.340Z,99319.09
2022-11-23T20:12:09.097Z,99325.22
2022-11-23T20:14:57.862Z,99320.97
2022-11-23T20:17:49.826Z,99331.19
2022-11-23T20:20:42.484Z,99326.44
2022-11-23T20:23:31.456Z,99324.56
2022-11-23T20:26:20.357Z,99326.00
2022-11-23T20:29:09.963Z,99329.13
2022-11-23T20:31:58.900Z,99327.22
2022-11-23T20:34:49.416Z,99332.88
2022-11-23T20:37:38.089Z,99338.97
2022-11-23T20:40:26.774Z,99336.34
2022-11-23T20:43:15.392Z,99340.91
2022-11-23T20:46:05.902Z,99337.66
2022-11-23T20:48:57.475Z,99336.78
2022-11-23T20:51:47.720Z,99341.38
2022-11-23T20:54:36.738Z,99344.63
2022-11-23T20:57:26.293Z,99345.38
2022-11-23T21:00:17.094Z,99348.72
2022-11-23T21:03:05.893Z,99352.81
2022-11-23T21:05:54.597Z,99350.38
2022-11-23T21:08:47.564Z,99366.31
2022-11-23T21:11:54.049Z,99366.31
2022-11-23T21:14:43.103Z,99370.38
2022-11-23T21:17:31.792Z,99369.63
2022-11-23T21:20:20.678Z,99371.97
2022-11-23T21:23:09.340Z,99372.00
2022-11-23T21:26:05.072Z,99376.78
2022-11-23T21:28:53.807Z,99375.38
2022-11-23T21:31:43.775Z,99387.06
2022-11-23T21:34:33.155Z,99393.63
2022-11-23T21:37:21.980Z,99388.59
2022-11-23T21:40:12.228Z,99392.44
2022-11-23T21:43:02.490Z,99385.88
2022-11-23T21:46:00.089Z,99389.28
2022-11-23T21:48:49.534Z,99392.97
2022-11-23T21:51:39.484Z,99405.13
2022-11-23T21:54:28.127Z,99403.94
2022-11-23T21:57:16.853Z,99402.72
2022-11-23T22:00:08.240Z,99403.06
2022-11-23T22:02:57.266Z,99399.66
2022-11-23T22:05:58.551Z,99400.13
2022-11-23T22:08:49.370Z,99391.25
2022-11-23T22:11:41.005Z,99399.56
2022-11-23T22:14:30.115Z,99400.03
2022-11-23T22:17:20.356Z,99406.50
2022-11-23T22:20:10.898Z,99409.28
2022-11-23T22:22:59.872Z,99413.09
2022-11-23T22:25:48.673Z,99422.22
2022-11-23T22:28:38.866Z,99425.16
2022-11-23T22:31:27.818Z,99424.97
2022-11-23T22:34:18.278Z,99427.19
2022-11-23T22:37:10.586Z,99430.16
2022-11-23T22:39:59.860Z,99432.97
2022-11-23T22:42:48.607Z,99433.44
2022-11-23T22:45:37.506Z,99446.97
2022-11-23T22:48:26.479Z,99441.25
2022-11-23T22:51:18.527Z,99441.94
2022-11-23T22:54:07.511Z,99447.91
2022-11-23T22:56:58.492Z,99449.13
2022-11-23T22:59:47.380Z,99451.63
2022-11-23T23:02:36.266Z,99449.97
2022-11-23T23:05:25.402Z,99447.16
2022-11-23T23:08:15.711Z,99446.34
2022-11-23T23:11:06.289Z,99459.47
2022-11-23T23:13:55.242Z,99461.94
2022-11-23T23:16:44.275Z,99462.34
2022-11-23T23:19:33.132Z,99466.88
2022-11-23T23:22:22.007Z,99458.66
2022-11-23T23:25:12.354Z,99462.16
2022-11-23T23:28:01.237Z,99470.56
2022-11-23T23:30:50.018Z,99464.03
2022-11-23T23:33:39.258Z,99478.97
2022-11-23T23:36:28.061Z,99472.63
2022-11-23T23:39:17.054Z,99475.50
2022-11-23T23:42:07.734Z,99471.00
2022-11-23T23:44:57.719Z,99480.00
2022-11-23T23:47:46.505Z,99476.94
2022-11-23T23:50:35.369Z,99477.97
2022-11-23T23:53:24.232Z,99479.22
2022-11-23T23:56:14.928Z,99476.34
2022-11-23T23:59:05.187Z,99479.81
